Time;durP1;ratioP1;P1;durP2;ratioP2;P2;SDS_P1;SDS_P2;PMS_P1;PMS_P2;Temp;Humidity;BMP_temperature;BMP_pressure;BME280_temperature;BME280_humidity;BME280_pressure;Samples;Min_cycle;Max_cycle;Signal;HPM_P1;HPM_P2
2023/04/04 00:01:24;;;;;;;3.38;1.73;;;2.30;90.90;;;;;;4990053;28;20022;-71
2023/04/04 00:03:50;;;;;;;4.22;2.53;;;1.90;99.90;;;;;;4990055;28;20022;-70
2023/04/04 00:06:16;;;;;;;3.63;2.95;;;;;;;;;;4990222;28;20054;-71
2023/04/04 00:08:42;;;;;;;2.70;2.47;;;;;;;;;;4989725;28;20038;-72
2023/04/04 00:11:08;;;;;;;2.00;1.80;;;;;;;;;;4990232;28;20610;-74
2023/04/04 00:13:34;;;;;;;2.78;2.28;;;;;;;;;;4988599;28;20030;-73
2023/04/04 00:16:00;;;;;;;5.47;2.78;;;2.20;99.40;;;;;;4989912;28;20491;-71
2023/04/04 00:18:26;;;;;;;3.20;2.10;;;;;;;;;;4987689;28;20034;-73
2023/04/04 00:20:51;;;;;;;3.17;1.80;;;1.90;96.80;;;;;;4989486;28;20097;-71
2023/04/04 00:23:17;;;;;;;3.33;2.45;;;;;;;;;;4990433;28;20030;-72
2023/04/04 00:25:51;;;;;;;3.42;2.15;;;1.80;92.10;;;;;;4989764;28;20037;-71
2023/04/04 00:28:18;;;;;;;2.00;1.90;;;2.50;99.90;;;;;;4989375;28;20014;-71
2023/04/04 00:30:44;;;;;;;2.50;2.30;;;1.90;99.90;;;;;;4989777;28;20042;-72
2023/04/04 00:33:10;;;;;;;5.90;2.40;;;1.60;99.10;;;;;;4989608;28;20121;-71
2023/04/04 00:35:36;;;;;;;2.03;1.73;;;;;;;;;;4989354;28;20523;-71
2023/04/04 00:38:02;;;;;;;3.85;2.85;;;1.80;99.90;;;;;;4989922;28;20027;-71
2023/04/04 00:40:27;;;;;;;4.93;3.13;;;1.80;96.90;;;;;;4988228;28;20040;-70
2023/04/04 00:42:53;;;;;;;2.90;2.05;;;;;;;;;;4989407;28;20023;-74
2023/04/04 00:45:20;;;;;;;2.78;2.25;;;;;;;;;;4989484;28;20026;-73
2023/04/04 00:47:46;;;;;;;4.65;2.72;;;1.90;92.10;;;;;;4988473;28;20133;-74
2023/04/04 00:50:12;;;;;;;3.80;2.45;;;;;;;;;;4989373;28;20054;-74
2023/04/04 00:52:38;;;;;;;2.50;2.17;;;;;;;;;;4989399;28;20022;-72
2023/04/04 00:55:04;;;;;;;3.03;2.28;;;2.50;93.60;;;;;;4989287;28;20449;-74
2023/04/04 00:57:32;;;;;;;6.85;2.42;;;1.60;92.50;;;;;;4976480;28;20030;-71
2023/04/04 00:59:58;;;;;;;2.95;2.35;;;1.60;92.30;;;;;;4989517;28;20276;-71
2023/04/04 01:02:25;;;;;;;2.88;2.22;;;1.50;99.90;;;;;;4989290;28;20033;-70
2023/04/04 01:04:51;;;;;;;3.10;1.93;;;;;;;;;;4988573;28;20100;-73
2023/04/04 01:07:18;;;;;;;5.68;3.00;;;1.60;92.50;;;;;;4989371;28;20037;-73
2023/04/04 01:09:44;;;;;;;5.33;3.30;;;1.60;99.90;;;;;;4989195;28;20027;-71
2023/04/04 01:12:10;;;;;;;8.20;2.92;;;1.60;99.90;;;;;;4989368;28;20058;-71
2023/04/04 01:14:36;;;;;;;2.33;2.13;;;;;;;;;;4989101;28;20061;-71
2023/04/04 01:17:02;;;;;;;3.85;1.70;;;1.20;99.90;;;;;;4989173;28;20244;-71
2023/04/04 01:19:52;;;;;;;14.80;4.15;;;1.40;94.10;;;;;;4989095;28;20120;-71
2023/04/04 01:22:20;;;;;;;2.20;2.00;;;1.20;97.60;;;;;;4988937;28;20113;-71
2023/04/04 01:24:46;;;;;;;2.45;2.13;;;;;;;;;;4992169;28;20681;-71
2023/04/04 01:27:13;;;;;;;4.82;3.20;;;1.20;99.90;;;;;;4993702;28;20054;-71
2023/04/04 01:29:39;;;;;;;3.93;2.70;;;1.10;99.90;;;;;;4993458;28;20053;-71
2023/04/04 01:32:31;;;;;;;5.13;2.88;;;1.20;95.10;;;;;;4993657;28;20082;-70
2023/04/04 01:35:02;;;;;;;3.28;2.22;;;1.40;99.90;;;;;;4997065;28;20451;-71
2023/04/04 01:37:46;;;;;;;3.90;2.38;;;1.20;94.30;;;;;;4993167;28;20420;-72
2023/04/04 01:40:24;;;;;;;3.17;2.03;;;1.80;99.90;;;;;;4993379;28;20038;-71
2023/04/04 01:42:51;;;;;;;5.68;2.50;;;1.90;99.90;;;;;;4992873;28;20421;-73
2023/04/04 01:45:17;;;;;;;2.55;2.35;;;1.10;99.90;;;;;;4992816;28;20058;-73
2023/04/04 01:47:43;;;;;;;1.88;1.77;;;;;;;;;;4992393;28;20050;-71
2023/04/04 01:50:10;;;;;;;4.55;1.90;;;1.10;95.30;;;;;;4991495;28;20076;-71
2023/04/04 01:52:37;;;;;;;2.20;1.45;;;;;;;;;;4991743;28;20503;-71
2023/04/04 01:55:03;;;;;;;5.03;2.30;;;0.90;99.90;;;;;;4992832;28;20042;-71
2023/04/04 01:57:29;;;;;;;3.00;2.20;;;;;;;;;;4992614;28;20018;-71
2023/04/04 01:59:55;;;;;;;2.63;2.42;;;;;;;;;;4992267;28;20038;-71
2023/04/04 02:02:21;;;;;;;3.67;2.42;;;;;;;;;;4992239;28;20073;-71
2023/04/04 02:04:47;;;;;;;4.85;3.42;;;;;;;;;;4992214;28;20038;-71
2023/04/04 02:07:13;;;;;;;2.47;2.28;;;;;;;;;;4992564;28;20034;-72
2023/04/04 02:09:40;;;;;;;6.22;2.20;;;;;;;;;;4992540;28;20535;-71
2023/04/04 02:12:07;;;;;;;5.53;3.03;;;1.10;99.40;;;;;;4992518;28;20026;-72
2023/04/04 02:14:33;;;;;;;3.10;2.15;;;1.00;99.90;;;;;;4992475;28;20434;-72
2023/04/04 02:16:59;;;;;;;4.85;2.30;;;;;;;;;;4992004;28;20038;-71
2023/04/04 02:19:24;;;;;;;3.05;2.00;;;1.00;99.90;;;;;;4991857;28;20031;-71
2023/04/04 02:21:50;;;;;;;4.88;3.58;;;1.10;99.90;;;;;;4991983;28;20228;-71
2023/04/04 02:24:16;;;;;;;3.83;2.60;;;;;;;;;;4992294;28;20121;-71
2023/04/04 02:26:42;;;;;;;2.38;2.13;;;1.70;99.90;;;;;;4991828;28;20019;-73
2023/04/04 02:29:08;;;;;;;4.18;2.60;;;;;;;;;;4992151;28;20537;-72
2023/04/04 02:31:33;;;;;;;3.47;1.75;;;1.20;99.90;;;;;;4991764;28;20018;-73
2023/04/04 02:33:59;;;;;;;2.42;2.05;;;;;;;;;;4991838;28;20034;-73
2023/04/04 02:36:26;;;;;;;3.95;2.78;;;;;;;;;;4990648;28;20031;-74
2023/04/04 02:38:52;;;;;;;3.90;2.53;;;1.40;99.90;;;;;;4992153;28;20027;-71
2023/04/04 02:41:17;;;;;;;3.55;2.55;;;1.20;99.90;;;;;;4992212;28;20050;-71
2023/04/04 02:43:43;;;;;;;2.75;2.10;;;;;;;;;;4992135;28;20030;-73
2023/04/04 02:46:09;;;;;;;3.08;2.53;;;;;;;;;;4991700;28;20018;-73
2023/04/04 02:48:35;;;;;;;3.72;1.42;;;;;;;;;;4992370;28;20523;-71
2023/04/04 02:51:01;;;;;;;2.40;2.20;;;0.80;98.00;;;;;;4992116;28;20018;-72
2023/04/04 02:53:27;;;;;;;2.08;1.70;;;;;;;;;;4991435;28;20165;-71
2023/04/04 02:55:53;;;;;;;2.30;1.67;;;0.60;99.20;;;;;;4990154;28;20030;-73
2023/04/04 02:58:19;;;;;;;4.03;1.95;;;;;;;;;;4991667;28;20487;-72
2023/04/04 03:00:48;;;;;;;2.60;2.28;;;;;;;;;;4991485;28;20022;-73
2023/04/04 03:03:13;;;;;;;7.28;2.13;;;1.00;99.90;;;;;;4991834;28;20177;-74
2023/04/04 03:05:39;;;;;;;2.22;1.95;;;;;;;;;;4991270;28;20591;-71
2023/04/04 03:08:05;;;;;;;2.10;1.75;;;;;;;;;;4991438;28;20030;-71
2023/04/04 03:10:31;;;;;;;2.72;1.95;;;;;;;;;;4990969;28;20022;-71
2023/04/04 03:12:58;;;;;;;3.35;2.50;;;0.50;98.10;;;;;;4990709;28;20038;-71
2023/04/04 03:15:25;;;;;;;5.65;2.72;;;;;;;;;;4991274;28;20042;-72
2023/04/04 03:17:51;;;;;;;3.22;2.08;;;0.40;98.30;;;;;;4991649;28;20185;-72
2023/04/04 03:20:17;;;;;;;6.43;2.72;;;;;;;;;;4991159;28;20112;-72
2023/04/04 03:22:43;;;;;;;2.95;1.88;;;;;;;;;;4991339;28;20037;-73
2023/04/04 03:25:10;;;;;;;2.85;2.28;;;0.60;99.90;;;;;;4990617;28;20026;-73
2023/04/04 03:27:36;;;;;;;3.38;2.40;;;0.20;99.00;;;;;;4990144;28;20506;-74
2023/04/04 03:30:02;;;;;;;3.05;2.67;;;0.60;99.90;;;;;;4990813;28;20026;-71
2023/04/04 03:32:27;;;;;;;3.15;2.17;;;0.70;99.90;;;;;;4990989;28;20042;-71
2023/04/04 03:34:53;;;;;;;3.25;2.60;;;;;;;;;;4990700;28;20096;-71
2023/04/04 03:37:21;;;;;;;1.98;1.80;;;;;;;;;;4990942;28;20042;-71
2023/04/04 03:39:46;;;;;;;;;;;0.80;98.10;;;;;;4978867;28;20049;-72
2023/04/04 03:42:12;;;;;;;4.53;3.45;;;0.80;99.90;;;;;;4990530;28;19906;-71
2023/04/04 03:44:41;;;;;;;3.47;2.75;;;0.90;99.90;;;;;;4990725;28;20018;-73
2023/04/04 03:47:06;;;;;;;2.10;1.60;;;0.80;99.90;;;;;;4988634;28;20061;-71
2023/04/04 03:49:33;;;;;;;4.50;3.13;;;1.00;99.90;;;;;;4990683;28;20030;-73
2023/04/04 03:52:01;;;;;;;2.17;1.93;;;;;;;;;;4990397;28;20114;-74
2023/04/04 03:54:28;;;;;;;2.10;1.90;;;0.50;99.90;;;;;;4990678;28;20301;-71
2023/04/04 03:56:54;;;;;;;4.25;3.03;;;0.30;99.90;;;;;;4990056;28;20037;-71
2023/04/04 03:59:20;;;;;;;3.45;2.53;;;0.20;99.90;;;;;;4990662;28;20034;-72
2023/04/04 04:01:46;;;;;;;4.47;2.05;;;;;;;;;;4990164;28;20531;-71
2023/04/04 04:04:12;;;;;;;2.33;2.13;;;;;;;;;;4990142;28;20030;-71
2023/04/04 04:06:38;;;;;;;2.83;2.63;;;;;;;;;;4989727;28;20057;-71
2023/04/04 04:09:04;;;;;;;3.30;2.28;;;0.00;99.90;;;;;;4990324;28;20057;-71
2023/04/04 04:11:29;;;;;;;3.60;3.28;;;-0.30;99.90;;;;;;4989852;28;20451;-71
2023/04/04 04:13:55;;;;;;;3.65;2.88;;;;;;;;;;4990178;28;20042;-71
2023/04/04 04:16:21;;;;;;;5.63;2.70;;;;;;;;;;4988447;28;20089;-71
2023/04/04 04:18:48;;;;;;;2.35;2.15;;;;;;;;;;4990403;28;20034;-72
2023/04/04 04:21:14;;;;;;;7.13;2.25;;;-0.10;99.90;;;;;;4989882;28;20053;-71
2023/04/04 04:23:40;;;;;;;2.53;2.10;;;0.20;99.90;;;;;;4989619;28;20034;-71
2023/04/04 04:26:06;;;;;;;4.32;3.30;;;;;;;;;;4989041;28;20487;-71
2023/04/04 04:28:31;;;;;;;2.45;2.25;;;0.90;99.90;;;;;;4989807;28;20030;-71
2023/04/04 04:31:05;;;;;;;3.28;2.65;;;0.30;99.90;;;;;;4989825;28;20033;-70
2023/04/04 04:33:31;;;;;;;3.85;2.80;;;;;;;;;;4989779;28;20407;-71
2023/04/04 04:36:03;;;;;;;3.65;2.35;;;0.30;99.90;;;;;;4989901;28;20057;-71
2023/04/04 04:38:29;;;;;;;3.13;1.75;;;0.60;98.90;;;;;;4989873;28;20109;-70
2023/04/04 04:40:56;;;;;;;4.78;3.25;;;0.70;98.50;;;;;;4989240;28;20110;-72
2023/04/04 04:43:22;;;;;;;3.67;2.70;;;1.10;99.90;;;;;;4979055;28;20034;-71
2023/04/04 04:45:49;;;;;;;5.40;3.17;;;;;;;;;;4989004;28;20037;-71
2023/04/04 04:48:18;;;;;;;3.67;3.10;;;;;;;;;;4989476;28;20055;-71
2023/04/04 04:50:45;;;;;;;4.20;2.30;;;0.80;99.90;;;;;;4990051;28;20030;-70
2023/04/04 04:53:11;;;;;;;8.30;2.35;;;;;;;;;;4989708;28;20030;-72
2023/04/04 04:55:37;;;;;;;4.82;3.30;;;1.10;99.90;;;;;;4989202;28;20447;-71
2023/04/04 04:58:05;;;;;;;3.75;3.25;;;;;;;;;;4988976;28;20018;-72
2023/04/04 05:00:31;;;;;;;4.45;2.13;;;1.30;99.90;;;;;;4989638;28;20038;-71
2023/04/04 05:02:59;;;;;;;3.17;2.58;;;1.90;99.90;;;;;;4989586;28;20041;-71
2023/04/04 05:05:25;;;;;;;3.95;2.83;;;1.60;99.90;;;;;;4989288;28;20030;-71
2023/04/04 05:07:51;;;;;;;8.02;3.15;;;1.30;99.90;;;;;;4987165;28;20027;-71
2023/04/04 05:13:39;;;;;;;5.63;2.95;;;1.20;99.90;;;;;;4988865;28;20038;-71
2023/04/04 05:16:04;;;;;;;8.30;2.33;;;1.20;99.90;;;;;;4989405;28;20030;-72
2023/04/04 05:18:30;;;;;;;3.30;2.17;;;1.10;99.90;;;;;;4989102;28;20098;-71
2023/04/04 05:20:56;;;;;;;4.50;2.95;;;;;;;;;;4985388;28;20023;-72
2023/04/04 05:23:22;;;;;;;3.72;2.45;;;;;;;;;;4985465;28;20499;-71
2023/04/04 05:25:52;;;;;;;4.65;2.20;;;1.00;96.30;;;;;;4982261;28;20755;-71
2023/04/04 05:28:19;;;;;;;2.00;1.80;;;0.90;96.40;;;;;;4978099;28;20027;-73
2023/04/04 05:30:45;;;;;;;3.25;2.65;;;0.80;98.00;;;;;;4986999;28;20139;-73
2023/04/04 05:33:11;;;;;;;3.53;2.85;;;;;;;;;;4987043;28;20034;-72
2023/04/04 05:35:37;;;;;;;6.93;3.08;;;;;;;;;;4982884;28;20042;-71
2023/04/04 05:38:03;;;;;;;3.17;2.88;;;;;;;;;;4986281;28;20026;-71
2023/04/04 05:40:29;;;;;;;3.08;2.80;;;;;;;;;;4986855;28;20035;-71
2023/04/04 05:42:56;;;;;;;10.07;3.60;;;0.60;98.50;;;;;;4985343;28;20026;-72
2023/04/04 05:45:22;;;;;;;11.60;2.80;;;;;;;;;;4987929;28;20058;-74
2023/04/04 05:47:48;;;;;;;2.55;1.98;;;;;;;;;;4987580;28;20047;-73
2023/04/04 05:50:14;;;;;;;7.63;2.85;;;0.80;99.90;;;;;;4987371;28;20034;-70
2023/04/04 05:52:40;;;;;;;7.55;2.78;;;0.70;99.90;;;;;;4988028;28;20455;-70
2023/04/04 05:55:06;;;;;;;3.13;2.90;;;;;;;;;;4987823;28;20046;-70
2023/04/04 05:57:32;;;;;;;3.53;2.45;;;1.00;99.20;;;;;;4987069;28;20227;-70
2023/04/04 05:59:58;;;;;;;3.13;2.92;;;;;;;;;;4986799;28;20124;-70
2023/04/04 06:02:24;;;;;;;3.45;3.10;;;2.00;99.90;;;;;;4987668;28;20069;-70
2023/04/04 06:04:50;;;;;;;5.97;3.30;;;;;;;;;;4988010;28;20035;-71
2023/04/04 06:07:17;;;;;;;3.70;2.78;;;;;;;;;;4985745;28;20030;-73
2023/04/04 06:09:43;;;;;;;4.03;3.67;;;;;;;;;;4985907;28;20030;-70
2023/04/04 06:12:09;;;;;;;2.92;2.63;;;;;;;;;;4991329;28;20023;-71
2023/04/04 06:14:35;;;;;;;8.30;5.38;;;10.10;70.60;;;;;;4991353;28;20527;-71
2023/04/04 06:17:02;;;;;;;3.85;3.28;;;11.10;60.90;;;;;;4991518;28;20049;-70
2023/04/04 06:19:28;;;;;;;3.77;3.33;;;;;;;;;;4991323;28;20045;-71
2023/04/04 06:21:54;;;;;;;3.28;2.50;;;;;;;;;;4988328;28;20403;-73
2023/04/04 06:24:19;;;;;;;5.03;3.38;;;11.10;75.80;;;;;;4974386;28;20018;-75
2023/04/04 06:26:50;;;;;;;4.53;3.35;;;;;;;;;;4988816;28;20025;-74
2023/04/04 06:29:16;;;;;;;7.30;3.80;;;;;;;;;;4989008;28;20042;-76
2023/04/04 06:31:42;;;;;;;8.15;3.13;;;9.20;76.20;;;;;;4987785;28;20033;-74
2023/04/04 06:34:08;;;;;;;6.22;3.65;;;;;;;;;;4987623;28;20471;-74
2023/04/04 06:36:34;;;;;;;4.57;4.28;;;;;;;;;;4988171;28;20109;-75
2023/04/04 06:39:00;;;;;;;8.63;4.82;;;19.90;62.90;;;;;;4987290;28;20102;-74
2023/04/04 06:41:26;;;;;;;6.47;5.45;;;;;;;;;;4985742;28;20030;-74
2023/04/04 06:43:52;;;;;;;4.90;4.40;;;25.50;51.90;;;;;;4988020;28;20038;-73
2023/04/04 06:46:18;;;;;;;5.55;3.65;;;27.20;47.80;;;;;;4988546;28;20570;-75
2023/04/04 06:48:43;;;;;;;5.18;4.05;;;29.20;46.20;;;;;;4988197;28;20038;-75
2023/04/04 06:51:10;;;;;;;4.00;3.60;;;;;;;;;;4984157;28;20023;-75
2023/04/04 06:53:36;;;;;;;3.58;3.20;;;32.10;42.00;;;;;;4987877;28;20061;-74
2023/04/04 06:56:03;;;;;;;5.00;3.97;;;33.60;40.80;;;;;;4987965;28;20108;-74
2023/04/04 06:58:29;;;;;;;3.60;2.85;;;;;;;;;;4987910;28;20092;-76
2023/04/04 07:00:58;;;;;;;7.23;3.00;;;;;;;;;;4980567;28;20026;-76
2023/04/04 07:03:24;;;;;;;3.85;2.78;;;36.30;37.90;;;;;;4988051;28;20019;-73
2023/04/04 07:05:50;;;;;;;3.03;2.73;;;37.10;29.70;;;;;;4987444;28;20037;-74
2023/04/04 07:08:16;;;;;;;5.13;2.33;;;;;;;;;;4988460;28;20325;-74
2023/04/04 07:10:41;;;;;;;2.38;2.05;;;38.60;34.30;;;;;;4981729;28;20115;-74
2023/04/04 07:13:07;;;;;;;2.00;1.83;;;39.30;33.20;;;;;;4987495;28;20878;-74
2023/04/04 07:15:32;;;;;;;2.80;2.10;;;39.70;32.70;;;;;;4987953;28;20039;-76
2023/04/04 07:17:58;;;;;;;3.23;2.43;;;;;;;;;;4986756;28;20093;-76
2023/04/04 07:20:27;;;;;;;3.53;2.38;;;;;;;;;;4983184;28;20034;-76
2023/04/04 07:22:52;;;;;;;2.88;2.25;;;41.60;30.80;;;;;;4985594;28;20059;-74
2023/04/04 07:25:18;;;;;;;2.23;1.90;;;41.70;30.70;;;;;;4987787;28;20645;-73
2023/04/04 07:27:44;;;;;;;3.03;1.83;;;42.30;24.30;;;;;;4986163;28;20030;-74
2023/04/04 07:30:10;;;;;;;4.03;2.30;;;42.70;27.40;;;;;;4986610;28;20026;-73
2023/04/04 07:32:36;;;;;;;3.22;1.77;;;;;;;;;;4982174;28;20030;-73
2023/04/04 07:35:04;;;;;;;;;;;43.40;22.60;;;;;;4987207;28;20034;-72
2023/04/04 07:37:29;;;;;;;2.58;1.98;;;44.10;28.90;;;;;;4984303;28;19906;-73
2023/04/04 07:39:55;;;;;;;2.58;2.13;;;44.40;28.70;;;;;;4988162;28;20048;-73
2023/04/04 07:42:24;;;;;;;2.38;2.05;;;;;;;;;;4981869;28;20027;-73
2023/04/04 07:44:51;;;;;;;2.10;1.85;;;44.90;28.10;;;;;;4986619;28;20395;-72
2023/04/04 07:47:17;;;;;;;5.13;1.92;;;45.00;27.60;;;;;;4987630;28;20043;-73
2023/04/04 07:49:43;;;;;;;6.57;2.47;;;;;;;;;;4986688;28;20085;-73
2023/04/04 07:52:09;;;;;;;;;;;45.20;21.10;;;;;;4980370;28;20514;-73
2023/04/04 07:54:35;;;;;;;3.75;1.70;;;46.10;27.60;;;;;;5016821;28;19914;-76
2023/04/04 07:57:04;;;;;;;;;;;44.70;20.20;;;;;;4986742;28;20057;-75
2023/04/04 07:59:30;;;;;;;8.43;4.88;;;;;;;;;;4987471;28;19953;-75
2023/04/04 08:01:56;;;;;;;2.17;1.05;;;;;;;;;;4978126;28;20058;-73
2023/04/04 08:04:22;;;;;;;4.03;3.33;;;;;;;;;;4987110;28;20030;-75
2023/04/04 08:06:48;;;;;;;2.75;1.50;;;30.20;26.50;;;;;;4987046;28;20041;-74
2023/04/04 08:09:15;;;;;;;5.77;4.83;;;;;;;;;;4987889;28;20030;-75
2023/04/04 08:11:41;;;;;;;2.70;2.20;;;;;;;;;;4978033;28;20117;-76
2023/04/04 08:14:10;;;;;;;2.15;1.80;;;;;;;;;;4986428;28;20392;-75
2023/04/04 08:16:37;;;;;;;2.10;1.45;;;;;;;;;;4986966;28;20092;-76
2023/04/04 08:19:03;;;;;;;2.42;1.40;;;;;;;;;;4987095;28;20030;-76
2023/04/04 08:21:29;;;;;;;2.80;1.48;;;;;;;;;;4979969;28;20085;-72
2023/04/04 08:23:55;;;;;;;3.90;2.60;;;45.10;26.60;;;;;;4985948;28;20096;-76
2023/04/04 08:26:21;;;;;;;1.80;1.70;;;;;;;;;;4987308;28;20030;-76
2023/04/04 08:28:47;;;;;;;2.33;1.23;;;47.90;25.60;;;;;;4986257;28;20583;-72
2023/04/04 08:31:12;;;;;;;;;;;48.30;19.10;;;;;;4981700;28;20030;-74
2023/04/04 08:33:39;;;;;;;2.03;1.90;;;;;;;;;;4983935;28;19914;-74
2023/04/04 08:36:05;;;;;;;1.67;1.45;;;;;;;;;;4986228;28;20031;-73
2023/04/04 08:38:31;;;;;;;1.60;1.50;;;;;;;;;;4986915;28;20026;-73
2023/04/04 08:40:57;;;;;;;2.25;1.50;;;;;;;;;;4980677;28;20117;-73
2023/04/04 08:43:24;;;;;;;1.67;1.58;;;45.60;25.20;;;;;;4985624;28;20025;-73
2023/04/04 08:45:53;;;;;;;1.85;1.52;;;46.50;25.20;;;;;;4985705;28;20080;-73
2023/04/04 08:48:20;;;;;;;2.35;1.70;;;46.30;25.00;;;;;;4986084;28;20133;-74
2023/04/04 08:50:45;;;;;;;2.22;1.52;;;47.80;25.40;;;;;;4981647;28;20072;-74
2023/04/04 08:53:13;;;;;;;1.80;1.65;;;47.90;19.10;;;;;;4983550;28;20494;-74
2023/04/04 08:55:39;;;;;;;2.10;2.00;;;;;;;;;;4985350;28;20044;-74
2023/04/04 08:58:05;;;;;;;1.80;1.70;;;46.80;24.70;;;;;;4985841;28;20061;-73
2023/04/04 09:00:31;;;;;;;2.20;1.60;;;;;;;;;;4981139;28;20058;-73
2023/04/04 09:03:20;;;;;;;2.05;0.90;;;44.80;17.60;;;;;;4985113;28;20026;-72
2023/04/04 09:05:46;;;;;;;2.22;1.30;;;35.70;19.50;;;;;;4986578;28;20026;-73
2023/04/04 09:08:13;;;;;;;2.53;1.33;;;;;;;;;;4985752;28;20061;-74
2023/04/04 09:10:42;;;;;;;3.13;1.95;;;35.40;29.10;;;;;;4981016;28;20026;-76
2023/04/04 09:13:08;;;;;;;5.32;1.80;;;;;;;;;;4985167;28;20551;-74
2023/04/04 09:15:37;;;;;;;3.92;2.40;;;40.70;26.40;;;;;;4985898;28;20118;-76
2023/04/04 09:18:03;;;;;;;1.40;1.00;;;;;;;;;;4985810;28;20030;-73
2023/04/04 09:20:39;;;;;;;1.75;1.20;;;37.10;19.00;;;;;;4981580;28;20034;-75
2023/04/04 09:23:17;;;;;;;2.40;2.20;;;38.90;24.20;;;;;;4984701;28;20857;-73
2023/04/04 09:25:49;;;;;;;2.20;2.00;;;41.80;19.40;;;;;;4986136;28;20558;-74
2023/04/04 09:28:15;;;;;;;2.25;1.70;;;43.70;25.90;;;;;;4985842;28;20553;-72
2023/04/04 09:30:43;;;;;;;2.75;2.22;;;;;;;;;;4980948;28;20058;-72
2023/04/04 09:33:11;;;;;;;3.85;2.00;;;46.00;25.40;;;;;;4984273;28;20030;-74
2023/04/04 09:35:40;;;;;;;2.53;2.33;;;46.70;18.60;;;;;;4985848;28;20038;-75
2023/04/04 09:38:06;;;;;;;3.45;2.10;;;46.50;18.50;;;;;;4978886;28;20015;-74
2023/04/04 09:40:35;;;;;;;2.65;1.50;;;47.40;18.90;;;;;;4980665;28;20045;-74
2023/04/04 09:43:02;;;;;;;1.70;1.30;;;46.90;18.70;;;;;;4981755;28;20026;-74
2023/04/04 09:45:33;;;;;;;1.88;1.20;;;47.40;18.70;;;;;;4977689;28;20137;-71
2023/04/04 09:47:59;;;;;;;1.35;1.25;;;;;;;;;;4988769;28;20066;-74
2023/04/04 09:50:27;;;;;;;4.05;1.65;;;46.90;19.50;;;;;;4984337;28;20157;-73
2023/04/04 09:52:57;;;;;;;3.42;2.00;;;47.80;19.20;;;;;;4987263;28;20042;-74
2023/04/04 09:55:31;;;;;;;1.98;1.63;;;46.00;24.60;;;;;;4988175;28;20057;-74
2023/04/04 09:57:57;;;;;;;1.58;1.33;;;;;;;;;;4989141;28;20695;-74
2023/04/04 10:00:29;;;;;;;7.30;1.40;;;45.50;18.90;;;;;;4982341;28;20388;-73
2023/04/04 10:02:57;;;;;;;1.35;1.17;;;45.60;25.10;;;;;;4997227;28;20026;-72
2023/04/04 10:05:23;;;;;;;1.30;1.15;;;44.40;19.00;;;;;;4988384;28;20037;-72
2023/04/04 10:07:49;;;;;;;1.73;1.50;;;;;;;;;;4993793;28;20029;-72
2023/04/04 10:10:16;;;;;;;4.15;1.95;;;;;;;;;;4986015;28;20041;-72
2023/04/04 10:12:45;;;;;;;1.88;1.27;;;46.00;24.60;;;;;;4988481;28;20064;-72
2023/04/04 10:15:11;;;;;;;1.30;1.13;;;45.90;24.50;;;;;;4989660;28;20149;-72
2023/04/04 10:17:39;;;;;;;1.70;1.27;;;42.50;16.80;;;;;;4987144;28;20117;-73
2023/04/04 10:20:07;;;;;;;1.40;1.20;;;45.90;18.40;;;;;;4988154;28;20058;-73
2023/04/04 10:22:35;;;;;;;1.67;1.00;;;46.80;25.00;;;;;;4984335;28;20026;-72
2023/04/04 10:25:01;;;;;;;2.97;1.13;;;;;;;;;;4988043;28;20049;-72
2023/04/04 10:27:27;;;;;;;2.58;1.20;;;46.50;18.20;;;;;;4988197;28;20097;-72
2023/04/04 10:29:53;;;;;;;1.50;1.27;;;;;;;;;;4988748;28;20109;-72
2023/04/04 10:32:28;;;;;;;1.35;0.88;;;46.30;24.40;;;;;;4982616;28;20106;-72
2023/04/04 10:35:04;;;;;;;1.27;1.05;;;46.80;25.20;;;;;;4986546;28;20045;-72
2023/04/04 10:37:50;;;;;;;;;;;46.50;18.50;;;;;;4988518;28;20064;-73
2023/04/04 10:40:18;;;;;;;4.25;1.27;;;;;;;;;;4983934;28;19913;-73
2023/04/04 10:42:46;;;;;;;1.60;1.23;;;44.30;24.90;;;;;;4984854;28;20510;-73
2023/04/04 10:45:13;;;;;;;2.67;1.35;;;44.60;24.90;;;;;;4986534;28;20416;-73
2023/04/04 10:47:40;;;;;;;1.35;0.95;;;44.10;24.20;;;;;;4985046;28;20054;-73
2023/04/04 10:50:09;;;;;;;2.55;1.15;;;43.40;17.90;;;;;;4985053;28;20097;-73
2023/04/04 10:52:37;;;;;;;1.30;0.82;;;42.70;18.20;;;;;;4982859;28;20038;-73
2023/04/04 10:55:12;;;;;;;1.05;0.77;;;42.50;24.80;;;;;;4987592;28;20583;-72
2023/04/04 10:57:42;;;;;;;1.03;0.93;;;41.70;18.30;;;;;;4987111;28;20026;-72
2023/04/04 11:00:19;;;;;;;1.92;1.50;;;39.80;17.00;;;;;;4986757;28;20026;-73
2023/04/04 11:02:59;;;;;;;2.83;1.17;;;43.20;25.10;;;;;;4985122;28;20428;-72
2023/04/04 11:05:33;;;;;;;2.60;0.88;;;43.70;18.10;;;;;;4987721;28;20026;-73
2023/04/04 11:08:04;;;;;;;5.88;1.10;;;43.10;18.10;;;;;;4988042;28;20038;-72
2023/04/04 11:10:34;;;;;;;1.92;1.02;;;43.30;18.20;;;;;;4983206;28;20034;-73
2023/04/04 11:13:07;;;;;;;2.70;1.30;;;42.70;25.30;;;;;;4986515;28;20053;-72
2023/04/04 11:16:04;;;;;;;3.25;1.40;;;43.10;25.10;;;;;;4987785;28;20456;-72
2023/04/04 11:18:42;;;;;;;1.48;0.90;;;43.70;18.90;;;;;;4987179;28;20034;-73
2023/04/04 11:21:18;;;;;;;3.42;1.10;;;43.60;18.10;;;;;;4982925;28;20037;-73
2023/04/04 11:23:50;;;;;;;2.00;0.95;;;43.30;25.10;;;;;;4984242;28;20019;-72
2023/04/04 11:26:34;;;;;;;1.98;0.95;;;42.80;17.80;;;;;;4987219;28;20026;-72
2023/04/04 11:29:02;;;;;;;2.17;0.98;;;42.00;18.00;;;;;;4985031;28;20037;-72
2023/04/04 11:31:33;;;;;;;1.25;1.05;;;41.40;18.00;;;;;;4982600;28;20438;-72
2023/04/04 11:34:07;;;;;;;1.33;1.23;;;41.20;18.00;;;;;;4985321;28;20540;-72
2023/04/04 11:36:40;;;;;;;1.92;1.30;;;40.50;17.70;;;;;;4987614;28;20038;-73
2023/04/04 11:39:08;;;;;;;3.15;0.90;;;39.40;18.00;;;;;;4986829;28;20121;-73
2023/04/04 11:42:02;;;;;;;1.40;1.00;;;39.20;18.20;;;;;;4982010;28;20038;-73
2023/04/04 11:44:30;;;;;;;1.77;1.10;;;38.60;18.00;;;;;;4986499;28;20030;-74
2023/04/04 11:47:08;;;;;;;2.90;1.30;;;38.00;18.20;;;;;;4986258;28;20054;-74
2023/04/04 11:49:36;;;;;;;1.40;1.08;;;37.30;21.40;;;;;;5013273;28;20034;-74
2023/04/04 11:52:16;;;;;;;4.30;1.50;;;37.40;18.50;;;;;;4981149;28;20027;-74
2023/04/04 11:54:44;;;;;;;1.63;1.20;;;36.90;18.50;;;;;;4985552;28;20034;-74
2023/04/04 11:57:14;;;;;;;1.58;1.33;;;36.40;23.80;;;;;;4986445;28;20034;-74
2023/04/04 11:59:46;;;;;;;1.80;1.42;;;34.90;30.00;;;;;;4984332;28;20098;-75
2023/04/04 12:02:15;;;;;;;4.68;1.35;;;33.80;19.00;;;;;;4982444;28;20030;-72
2023/04/04 12:04:44;;;;;;;6.25;1.70;;;33.50;23.60;;;;;;4985150;28;20118;-79
2023/04/04 12:07:11;;;;;;;1.60;1.50;;;34.90;24.90;;;;;;4984541;28;20723;-76
2023/04/04 12:09:38;;;;;;;7.55;1.52;;;34.80;19.30;;;;;;4984621;28;20030;-78
2023/04/04 12:12:04;;;;;;;3.90;1.02;;;35.20;31.40;;;;;;4980534;28;20022;-78
2023/04/04 12:14:31;;;;;;;5.25;1.70;;;36.20;19.50;;;;;;4986278;28;20042;-72
2023/04/04 12:16:58;;;;;;;1.58;1.25;;;35.50;21.10;;;;;;4986885;28;20392;-73
2023/04/04 12:19:25;;;;;;;3.17;1.27;;;36.20;31.40;;;;;;4986960;28;20097;-73
2023/04/04 12:21:52;;;;;;;2.10;1.40;;;35.90;19.30;;;;;;4981570;28;20467;-72
2023/04/04 12:24:18;;;;;;;;;;;36.00;19.40;;;;;;4985998;28;20054;-72
2023/04/04 12:26:48;;;;;;;3.60;1.83;;;35.00;31.40;;;;;;4986243;28;19917;-72
2023/04/04 12:29:16;;;;;;;2.75;1.45;;;35.00;32.20;;;;;;4986319;28;20034;-72
2023/04/04 12:31:45;;;;;;;1.67;1.40;;;34.70;19.50;;;;;;4980326;28;20030;-73
2023/04/04 12:34:23;;;;;;;2.05;1.40;;;34.30;19.60;;;;;;4986061;28;20042;-73
2023/04/04 12:36:54;;;;;;;1.13;0.88;;;33.50;28.30;;;;;;4985133;28;20057;-72
2023/04/04 12:39:21;;;;;;;1.33;1.20;;;32.60;34.00;;;;;;4985384;28;20677;-72
2023/04/04 12:41:56;;;;;;;3.20;1.33;;;31.60;20.40;;;;;;4980631;28;20061;-72
2023/04/04 12:44:36;;;;;;;5.32;1.30;;;30.60;20.70;;;;;;4986140;28;20500;-72
2023/04/04 12:47:04;;;;;;;1.98;1.45;;;29.40;28.90;;;;;;4984338;28;20058;-72
2023/04/04 12:49:31;;;;;;;1.77;1.50;;;27.30;21.80;;;;;;4985485;28;20579;-72
2023/04/04 12:52:03;;;;;;;;;;;27.00;21.80;;;;;;4979828;28;20029;-73
2023/04/04 12:54:34;;;;;;;1.83;1.70;;;24.40;22.80;;;;;;4985835;28;19917;-72
2023/04/04 12:57:04;;;;;;;3.80;1.80;;;23.50;23.90;;;;;;4985253;28;20026;-72
2023/04/04 12:59:32;;;;;;;5.03;1.40;;;22.70;24.60;;;;;;4986424;28;20105;-72
2023/04/04 13:02:01;;;;;;;1.60;1.50;;;21.80;41.40;;;;;;4978623;28;20245;-72
2023/04/04 13:04:27;;;;;;;2.10;1.90;;;21.50;31.70;;;;;;4984844;28;20039;-72
2023/04/04 13:06:53;;;;;;;4.28;2.15;;;;;;;;;;4985518;28;20034;-72
2023/04/04 13:09:21;;;;;;;2.10;2.00;;;20.20;26.50;;;;;;4985900;28;20031;-75
2023/04/04 13:12:01;;;;;;;2.78;2.15;;;19.30;29.00;;;;;;4979998;28;20050;-76
2023/04/04 13:14:48;;;;;;;2.50;2.30;;;19.60;27.40;;;;;;4984305;28;20042;-75
2023/04/04 13:17:14;;;;;;;5.00;2.20;;;;;;;;;;4985918;28;20033;-73
2023/04/04 13:19:40;;;;;;;2.58;2.38;;;;;;;;;;4984780;28;20113;-75
2023/04/04 13:22:08;;;;;;;3.45;2.45;;;18.60;28.40;;;;;;4979012;28;20567;-75
2023/04/04 13:24:34;;;;;;;2.90;2.70;;;;;;;;;;4984092;28;20033;-74
2023/04/04 13:27:00;;;;;;;2.97;2.50;;;;;;;;;;4985575;28;20022;-75
2023/04/04 13:29:26;;;;;;;2.55;2.35;;;;;;;;;;4985966;28;20077;-76
2023/04/04 13:31:52;;;;;;;3.73;2.30;;;18.10;48.80;;;;;;4980488;28;20037;-75
2023/04/04 13:34:18;;;;;;;2.85;2.20;;;;;;;;;;4985618;28;20043;-76
2023/04/04 13:36:45;;;;;;;2.50;2.30;;;;;;;;;;4984907;28;20030;-78